createdAt,value
2022-08-26T00:01:30.739Z,4.57
2022-08-26T00:03:58.520Z,5.25
2022-08-26T00:06:25.789Z,5.50
2022-08-26T00:08:52.172Z,5.15
2022-08-26T00:11:26.549Z,4.88
2022-08-26T00:13:56.699Z,5.15
2022-08-26T00:16:25.016Z,5.07
2022-08-26T00:18:53.081Z,4.78
2022-08-26T00:21:19.979Z,5.13
2022-08-26T00:23:46.554Z,4.88
2022-08-26T00:26:14.274Z,5.32
2022-08-26T00:28:41.345Z,5.43
2022-08-26T00:31:10.810Z,4.90
2022-08-26T00:33:38.470Z,4.60
2022-08-26T00:36:05.855Z,5.15
2022-08-26T00:38:32.614Z,5.25
2022-08-26T00:40:59.260Z,4.78
2022-08-26T00:43:26.930Z,5.57
2022-08-26T00:46:14.645Z,5.43
2022-08-26T00:48:46.898Z,5.30
2022-08-26T00:51:19.793Z,5.07
2022-08-26T00:53:52.482Z,6.00
2022-08-26T00:56:26.985Z,5.20
2022-08-26T00:58:56.754Z,5.72
2022-08-26T01:01:23.384Z,5.97
2022-08-26T01:03:50.025Z,7.50
2022-08-26T01:06:16.550Z,9.43
2022-08-26T01:08:43.753Z,8.60
2022-08-26T01:11:11.077Z,9.25
2022-08-26T01:13:38.845Z,11.35
2022-08-26T01:16:10.432Z,11.23
2022-08-26T01:18:36.979Z,11.65
2022-08-26T01:21:31.547Z,12.30
2022-08-26T01:23:59.518Z,11.88
2022-08-26T01:26:41.544Z,13.82
2022-08-26T01:29:17.091Z,14.10
2022-08-26T01:31:47.307Z,19.17
2022-08-26T01:34:22.124Z,17.50
2022-08-26T01:36:51.650Z,18.52
2022-08-26T01:39:18.553Z,17.90
2022-08-26T01:41:46.326Z,20.15
2022-08-26T01:44:21.753Z,21.98
2022-08-26T01:46:50.741Z,24.45
2022-08-26T01:49:17.941Z,24.13
2022-08-26T01:51:46.578Z,25.63
2022-08-26T01:54:14.032Z,27.50
2022-08-26T01:56:41.057Z,33.20
2022-08-26T01:59:12.400Z,32.28
2022-08-26T02:01:40.717Z,30.70
2022-08-26T02:04:36.085Z,33.08
2022-08-26T02:07:06.349Z,32.58
2022-08-26T02:09:41.042Z,37.28
2022-08-26T02:12:10.340Z,42.22
2022-08-26T02:14:43.662Z,40.25
2022-08-26T02:17:11.815Z,36.00
2022-08-26T02:19:41.821Z,36.67
2022-08-26T02:22:16.136Z,38.95
2022-08-26T02:24:57.908Z,41.05
2022-08-26T02:27:33.650Z,42.50
2022-08-26T02:30:14.740Z,42.85
2022-08-26T02:32:44.453Z,42.30
2022-08-26T02:35:13.514Z,44.30
2022-08-26T02:37:44.817Z,37.72
2022-08-26T02:40:13.641Z,41.72
2022-08-26T02:42:41.206Z,45.75
2022-08-26T02:45:10.581Z,39.03
2022-08-26T02:47:37.450Z,42.55
2022-08-26T02:50:05.249Z,45.63
2022-08-26T02:52:31.803Z,41.15
2022-08-26T02:54:58.865Z,38.80
2022-08-26T02:57:25.997Z,37.78
2022-08-26T02:59:52.667Z,38.45
2022-08-26T03:02:19.309Z,38.50
2022-08-26T03:04:57.896Z,42.35
2022-08-26T03:07:28.392Z,42.58
2022-08-26T03:09:54.769Z,40.60
2022-08-26T03:12:21.165Z,40.40
2022-08-26T03:14:48.191Z,39.88
2022-08-26T03:17:14.625Z,35.15
2022-08-26T03:19:40.990Z,34.60
2022-08-26T03:22:08.027Z,36.25
2022-08-26T03:24:34.900Z,36.92
2022-08-26T03:27:02.009Z,36.08
2022-08-26T03:29:52.934Z,37.08
2022-08-26T03:32:20.816Z,33.40
2022-08-26T03:34:47.768Z,34.28
2022-08-26T03:37:14.680Z,33.97
2022-08-26T03:39:41.635Z,32.42
2022-08-26T03:42:08.145Z,32.70
2022-08-26T03:44:34.999Z,30.90
2022-08-26T03:47:01.544Z,30.42
2022-08-26T03:49:29.014Z,30.33
2022-08-26T03:51:55.623Z,32.10
2022-08-26T03:54:22.101Z,30.70
2022-08-26T03:56:48.643Z,33.38
2022-08-26T03:59:15.017Z,30.15
2022-08-26T04:01:41.920Z,28.27
2022-08-26T04:04:08.718Z,29.95
2022-08-26T04:06:38.511Z,28.92
2022-08-26T04:09:08.669Z,31.38
2022-08-26T04:11:38.390Z,32.30
2022-08-26T04:14:09.053Z,30.25
2022-08-26T04:16:35.860Z,30.80
2022-08-26T04:19:02.444Z,32.25
2022-08-26T04:21:28.935Z,31.20
2022-08-26T04:23:56.075Z,32.55
2022-08-26T04:26:25.562Z,34.20
2022-08-26T04:28:54.556Z,36.80
2022-08-26T04:31:21.069Z,35.97
2022-08-26T04:33:49.911Z,35.80
2022-08-26T04:36:17.416Z,35.38
2022-08-26T04:38:46.163Z,32.80
2022-08-26T04:41:15.552Z,35.28
2022-08-26T04:43:44.491Z,37.05
2022-08-26T04:46:12.811Z,36.85
2022-08-26T04:48:40.876Z,38.20
2022-08-26T04:51:07.706Z,38.55
2022-08-26T04:53:34.756Z,33.53
2022-08-26T04:56:01.433Z,33.22
2022-08-26T04:58:30.419Z,32.28
2022-08-26T05:00:57.264Z,33.55
2022-08-26T05:03:25.468Z,33.80
2022-08-26T05:05:53.201Z,33.47
2022-08-26T05:08:22.462Z,34.42
2022-08-26T05:10:52.538Z,32.05
2022-08-26T05:13:21.332Z,31.45
2022-08-26T05:15:48.831Z,30.50
2022-08-26T05:18:17.511Z,31.67
2022-08-26T05:20:50.049Z,30.65
2022-08-26T05:23:17.545Z,30.63
2022-08-26T05:25:46.500Z,30.80
2022-08-26T05:28:15.196Z,27.73
2022-08-26T05:30:42.598Z,28.77
2022-08-26T05:33:11.630Z,27.10
2022-08-26T05:35:39.114Z,26.45
2022-08-26T05:38:12.607Z,24.63
2022-08-26T05:40:43.174Z,25.25
2022-08-26T05:43:13.430Z,23.20
2022-08-26T05:45:46.151Z,23.45
2022-08-26T05:48:14.237Z,24.50
2022-08-26T05:50:42.972Z,23.63
2022-08-26T05:53:11.734Z,21.60
2022-08-26T05:55:52.528Z,20.08
2022-08-26T05:58:21.428Z,18.88
2022-08-26T06:01:14.486Z,19.00
2022-08-26T06:03:44.684Z,18.52
2022-08-26T06:06:27.313Z,19.30
2022-08-26T06:08:55.551Z,19.20
2022-08-26T06:11:26.612Z,16.85
2022-08-26T06:13:55.812Z,16.92
2022-08-26T06:16:24.628Z,17.65
2022-08-26T06:18:53.176Z,16.50
2022-08-26T06:21:28.963Z,17.05
2022-08-26T06:24:16.896Z,15.95
2022-08-26T06:26:50.395Z,16.00
2022-08-26T06:29:24.305Z,15.95
2022-08-26T06:31:52.533Z,14.60
2022-08-26T06:34:19.019Z,14.82
2022-08-26T06:36:47.145Z,15.48
2022-08-26T06:39:15.455Z,14.70
2022-08-26T06:41:43.598Z,15.93
2022-08-26T06:44:10.809Z,14.50
2022-08-26T06:46:38.099Z,15.18
2022-08-26T06:49:05.460Z,15.70
2022-08-26T06:51:35.013Z,14.40
2022-08-26T06:54:03.399Z,15.32
2022-08-26T06:56:35.754Z,13.73
2022-08-26T06:59:03.734Z,13.65
2022-08-26T07:01:37.378Z,12.90
2022-08-26T07:04:10.425Z,12.02
2022-08-26T07:06:39.171Z,12.57
2022-08-26T07:09:09.840Z,16.20
2022-08-26T07:11:37.918Z,15.75
2022-08-26T07:14:04.917Z,14.25
2022-08-26T07:16:31.793Z,14.30
2022-08-26T07:18:59.854Z,14.00
2022-08-26T07:21:29.869Z,16.50
2022-08-26T07:24:00.543Z,15.55
2022-08-26T07:26:30.126Z,13.93
2022-08-26T07:28:58.613Z,16.33
2022-08-26T07:31:28.181Z,13.88
2022-08-26T07:33:56.869Z,14.60
2022-08-26T07:36:24.284Z,14.13
2022-08-26T07:38:52.050Z,14.93
2022-08-26T07:41:22.774Z,13.93
2022-08-26T07:43:50.465Z,14.77
2022-08-26T07:46:20.833Z,14.77
2022-08-26T07:48:56.819Z,13.98
2022-08-26T07:51:23.455Z,14.20
2022-08-26T07:53:52.802Z,13.15
2022-08-26T07:56:20.277Z,12.15
2022-08-26T07:58:51.272Z,12.70
2022-08-26T08:01:23.863Z,15.88
2022-08-26T08:03:51.914Z,14.98
2022-08-26T08:06:20.759Z,13.10
2022-08-26T08:08:48.435Z,12.25
2022-08-26T08:11:21.147Z,12.95
2022-08-26T08:13:47.910Z,13.32
2022-08-26T08:16:15.542Z,11.68
2022-08-26T08:18:42.277Z,10.95
2022-08-26T08:21:21.162Z,11.65
2022-08-26T08:23:54.246Z,12.75
2022-08-26T08:26:21.573Z,11.60
2022-08-26T08:28:48.231Z,12.02
2022-08-26T08:34:13.715Z,11.35
2022-08-26T08:36:40.233Z,12.98
2022-08-26T08:39:07.957Z,12.27
2022-08-26T08:42:04.173Z,12.10
2022-08-26T08:44:31.252Z,11.15
2022-08-26T08:47:19.009Z,11.68
2022-08-26T08:49:47.265Z,12.63
2022-08-26T08:52:35.025Z,11.27
2022-08-26T08:55:03.033Z,11.85
2022-08-26T08:57:35.447Z,12.60
2022-08-26T09:00:17.649Z,12.45
2022-08-26T09:03:00.960Z,12.90
2022-08-26T09:05:32.005Z,12.75
2022-08-26T09:08:20.032Z,11.65
2022-08-26T09:10:54.450Z,12.27
2022-08-26T09:13:24.974Z,13.25
2022-08-26T09:15:55.327Z,13.27
2022-08-26T09:18:40.252Z,12.75
2022-08-26T09:21:16.166Z,13.15
2022-08-26T09:23:49.159Z,13.75
2022-08-26T09:26:36.240Z,13.75
2022-08-26T09:29:13.755Z,13.00
2022-08-26T09:31:41.305Z,12.60
2022-08-26T09:34:22.226Z,12.43
2022-08-26T09:36:51.742Z,13.18
2022-08-26T09:39:27.392Z,13.95
2022-08-26T09:42:08.162Z,14.45
2022-08-26T09:44:56.875Z,14.20
2022-08-26T09:47:30.118Z,13.90
2022-08-26T09:50:18.376Z,10.85
2022-08-26T09:52:45.063Z,10.95
2022-08-26T09:55:20.594Z,13.50
2022-08-26T09:57:54.056Z,12.60
2022-08-26T10:00:38.738Z,12.38
2022-08-26T10:03:23.893Z,14.10
2022-08-26T10:06:02.885Z,12.18
2022-08-26T10:08:31.446Z,11.02
2022-08-26T10:11:01.895Z,10.35
2022-08-26T10:13:31.406Z,9.80
2022-08-26T10:16:22.130Z,9.75
2022-08-26T10:19:08.213Z,9.02
2022-08-26T10:21:38.934Z,9.77
2022-08-26T10:24:07.401Z,8.82
2022-08-26T10:26:56.338Z,7.95
2022-08-26T10:29:46.914Z,8.93
2022-08-26T10:32:23.812Z,8.50
2022-08-26T10:34:52.003Z,11.38
2022-08-26T10:37:23.405Z,11.70
2022-08-26T10:40:00.540Z,14.02
2022-08-26T10:42:49.165Z,13.95
2022-08-26T10:45:25.505Z,11.60
2022-08-26T10:48:06.859Z,10.50
2022-08-26T10:50:38.064Z,9.85
2022-08-26T10:53:11.689Z,10.38
2022-08-26T10:56:02.755Z,11.35
2022-08-26T10:59:06.219Z,10.10
2022-08-26T11:01:50.987Z,12.95
2022-08-26T11:04:22.381Z,11.25
2022-08-26T11:06:49.346Z,9.48
2022-08-26T11:09:47.426Z,10.10
2022-08-26T11:12:42.112Z,9.75
2022-08-26T11:15:11.587Z,11.20
2022-08-26T11:17:45.978Z,10.93
2022-08-26T11:20:27.920Z,13.75
2022-08-26T11:22:56.224Z,14.60
2022-08-26T11:25:30.827Z,13.95
2022-08-26T11:28:01.139Z,14.20
2022-08-26T11:30:42.639Z,14.38
2022-08-26T11:33:10.503Z,12.50
2022-08-26T11:35:37.372Z,12.35
2022-08-26T11:38:41.096Z,12.13
2022-08-26T11:41:17.230Z,19.85
2022-08-26T11:43:45.359Z,19.27
2022-08-26T11:46:12.913Z,18.13
2022-08-26T11:48:42.390Z,18.55
2022-08-26T11:51:11.736Z,19.20
2022-08-26T11:53:45.029Z,17.90
2022-08-26T11:56:31.612Z,19.25
2022-08-26T11:59:00.855Z,19.67
2022-08-26T12:01:41.686Z,16.70
2022-08-26T12:04:13.879Z,16.58
2022-08-26T12:06:50.855Z,16.90
2022-08-26T12:09:24.758Z,14.93
2022-08-26T12:11:52.774Z,15.57
2022-08-26T12:14:27.727Z,14.52
2022-08-26T12:16:54.647Z,14.77
2022-08-26T12:19:33.424Z,14.27
2022-08-26T12:22:23.364Z,13.13
2022-08-26T12:24:53.867Z,14.40
2022-08-26T12:27:27.127Z,12.65
2022-08-26T12:30:09.365Z,11.93
2022-08-26T12:32:58.085Z,12.43
2022-08-26T12:35:26.772Z,11.10
2022-08-26T12:37:54.689Z,9.40
2022-08-26T12:40:30.855Z,8.90
2022-08-26T12:43:00.482Z,8.23
2022-08-26T12:45:41.483Z,8.00
2022-08-26T12:48:11.891Z,7.70
2022-08-26T12:50:45.819Z,6.70
2022-08-26T12:53:12.214Z,6.78
2022-08-26T12:55:38.716Z,7.30
2022-08-26T12:58:27.368Z,7.97
2022-08-26T13:01:09.334Z,7.68
2022-08-26T13:03:38.760Z,7.55
2022-08-26T13:06:22.530Z,6.47
2022-08-26T13:08:56.833Z,6.38
2022-08-26T13:11:31.785Z,7.15
2022-08-26T13:14:06.876Z,7.55
2022-08-26T13:16:34.335Z,7.40
2022-08-26T13:19:05.724Z,6.82
2022-08-26T13:21:50.439Z,5.97
2022-08-26T13:24:30.556Z,4.55
2022-08-26T13:26:57.275Z,4.80
2022-08-26T13:29:23.924Z,4.05
2022-08-26T13:31:51.618Z,4.72
2022-08-26T13:34:20.424Z,4.28
2022-08-26T13:36:48.447Z,4.72
2022-08-26T13:39:15.058Z,4.35
2022-08-26T13:41:43.158Z,4.05
2022-08-26T13:44:10.491Z,4.03
2022-08-26T13:46:37.114Z,3.65
2022-08-26T13:49:04.334Z,3.20
2022-08-26T13:51:31.579Z,3.28
2022-08-26T13:53:58.671Z,2.53
2022-08-26T13:56:27.491Z,2.83
2022-08-26T13:58:53.933Z,2.95
2022-08-26T14:01:20.555Z,3.40
2022-08-26T14:03:47.062Z,2.83
2022-08-26T14:06:13.762Z,2.53
2022-08-26T14:08:40.814Z,2.42
2022-08-26T14:11:07.868Z,2.28
2022-08-26T14:13:34.544Z,2.30
2022-08-26T14:16:02.771Z,2.50
2022-08-26T14:18:33.345Z,2.30
2022-08-26T14:21:00.671Z,2.30
2022-08-26T14:23:27.385Z,2.00
2022-08-26T14:25:54.180Z,2.03
2022-08-26T14:28:20.685Z,2.30
2022-08-26T14:30:57.928Z,2.17
2022-08-26T14:33:27.065Z,2.08
2022-08-26T14:36:13.417Z,2.63
2022-08-26T14:38:39.999Z,2.70
2022-08-26T14:41:06.455Z,2.45
2022-08-26T14:43:32.991Z,2.33
2022-08-26T14:45:59.530Z,2.65
2022-08-26T14:48:25.960Z,2.80
2022-08-26T14:50:52.487Z,2.85
2022-08-26T14:53:37.433Z,2.55
2022-08-26T14:56:04.077Z,3.35
2022-08-26T14:58:35.003Z,3.35
2022-08-26T15:01:04.432Z,3.28
2022-08-26T15:03:31.091Z,2.97
2022-08-26T15:05:57.954Z,2.90
2022-08-26T15:08:24.582Z,2.70
2022-08-26T15:10:51.123Z,2.75
2022-08-26T15:13:17.531Z,2.70
2022-08-26T15:15:44.449Z,3.28
2022-08-26T15:18:11.132Z,2.80
2022-08-26T15:20:38.122Z,3.10
2022-08-26T15:23:06.495Z,3.20
2022-08-26T15:25:32.965Z,3.22
2022-08-26T15:27:59.710Z,3.38
2022-08-26T15:30:26.273Z,2.40
2022-08-26T15:32:52.697Z,3.30
2022-08-26T15:35:19.185Z,3.80
2022-08-26T15:37:45.828Z,3.33
2022-08-26T15:40:12.391Z,3.35
2022-08-26T15:42:39.313Z,4.07
2022-08-26T15:45:06.125Z,3.15
2022-08-26T15:47:35.485Z,3.42
2022-08-26T15:50:20.271Z,3.58
2022-08-26T15:52:47.899Z,3.53
2022-08-26T15:55:14.327Z,2.90
2022-08-26T15:57:40.845Z,3.00
2022-08-26T16:00:09.793Z,2.97
2022-08-26T16:02:36.275Z,3.10
2022-08-26T16:05:02.933Z,3.05
2022-08-26T16:07:30.867Z,3.20
2022-08-26T16:09:57.535Z,3.30
2022-08-26T16:12:24.527Z,3.17
2022-08-26T16:14:52.766Z,2.78
2022-08-26T16:17:20.089Z,2.95
2022-08-26T16:19:46.784Z,3.95
2022-08-26T16:22:13.347Z,3.25
2022-08-26T16:24:39.741Z,3.58
2022-08-26T16:27:06.138Z,3.45
2022-08-26T16:29:32.786Z,3.15
2022-08-26T16:31:59.303Z,2.83
2022-08-26T16:34:25.848Z,3.03
2022-08-26T16:36:52.995Z,3.10
2022-08-26T16:39:19.463Z,3.33
2022-08-26T16:41:45.981Z,3.13
2022-08-26T16:44:12.506Z,3.45
2022-08-26T16:46:39.632Z,3.28
2022-08-26T16:49:06.302Z,3.22
2022-08-26T16:51:37.856Z,2.72
2022-08-26T16:54:06.966Z,3.50
2022-08-26T16:56:34.501Z,3.83
2022-08-26T16:59:02.408Z,3.03
2022-08-26T17:01:29.293Z,4.07
2022-08-26T17:03:55.956Z,4.20
2022-08-26T17:06:22.496Z,3.92
2022-08-26T17:08:49.496Z,3.35
2022-08-26T17:11:16.125Z,3.45
2022-08-26T17:13:42.662Z,3.38
2022-08-26T17:16:14.421Z,3.75
2022-08-26T17:18:41.134Z,3.25
2022-08-26T17:21:11.253Z,2.92
2022-08-26T17:23:39.113Z,3.30
2022-08-26T17:26:05.732Z,3.45
2022-08-26T17:28:32.463Z,3.38
2022-08-26T17:30:59.750Z,3.40
2022-08-26T17:33:26.260Z,2.97
2022-08-26T17:35:53.227Z,2.92
2022-08-26T17:38:21.086Z,2.80
2022-08-26T17:40:47.978Z,3.05
2022-08-26T17:43:14.361Z,3.53
2022-08-26T17:45:41.192Z,3.63
2022-08-26T17:48:08.420Z,3.40
2022-08-26T17:50:35.668Z,3.17
2022-08-26T17:53:02.213Z,3.60
2022-08-26T17:55:28.991Z,3.45
2022-08-26T17:57:55.640Z,2.90
2022-08-26T18:00:26.393Z,3.35
2022-08-26T18:02:54.578Z,3.15
2022-08-26T18:05:21.705Z,3.85
2022-08-26T18:07:48.346Z,3.13
2022-08-26T18:10:17.355Z,3.78
2022-08-26T18:12:43.880Z,4.10
2022-08-26T18:15:11.695Z,3.85
2022-08-26T18:17:41.672Z,3.55
2022-08-26T18:20:15.534Z,3.63
2022-08-26T18:22:43.593Z,4.28
2022-08-26T18:25:11.989Z,3.60
2022-08-26T18:27:39.019Z,3.58
2022-08-26T18:30:13.396Z,3.40
2022-08-26T18:32:42.709Z,3.88
2022-08-26T18:35:09.909Z,3.65
2022-08-26T18:37:37.179Z,3.30
2022-08-26T18:40:09.719Z,3.38
2022-08-26T18:42:36.833Z,2.90
2022-08-26T18:45:05.662Z,3.00
2022-08-26T18:47:32.744Z,2.90
2022-08-26T18:50:03.456Z,3.30
2022-08-26T18:52:31.070Z,2.53
2022-08-26T18:54:57.458Z,2.90
2022-08-26T18:57:23.845Z,3.00
2022-08-26T18:59:50.267Z,2.90
2022-08-26T19:02:16.877Z,2.78
2022-08-26T19:04:43.515Z,3.13
2022-08-26T19:07:10.218Z,2.30
2022-08-26T19:09:36.841Z,3.03
2022-08-26T19:12:05.137Z,2.78
2022-08-26T19:14:32.445Z,3.78
2022-08-26T19:16:59.341Z,2.85
2022-08-26T19:19:25.922Z,2.80
2022-08-26T19:21:53.334Z,2.55
2022-08-26T19:24:21.415Z,2.78
2022-08-26T19:26:57.528Z,2.80
2022-08-26T19:29:27.396Z,2.70
2022-08-26T19:31:54.331Z,2.70
2022-08-26T19:34:21.070Z,2.47
2022-08-26T19:36:48.509Z,2.67
2022-08-26T19:39:15.513Z,2.33
2022-08-26T19:41:41.957Z,2.78
2022-08-26T19:44:11.490Z,2.42
2022-08-26T19:49:09.633Z,2.45
2022-08-26T19:51:36.753Z,2.60
2022-08-26T19:54:03.666Z,2.63
2022-08-26T19:56:30.407Z,2.67
2022-08-26T19:58:58.049Z,2.45
2022-08-26T20:01:25.470Z,2.42
2022-08-26T20:03:52.168Z,2.83
2022-08-26T20:06:19.991Z,2.47
2022-08-26T20:08:46.548Z,2.70
2022-08-26T20:11:15.864Z,2.53
2022-08-26T20:13:43.937Z,2.45
2022-08-26T20:16:12.037Z,2.80
2022-08-26T20:18:58.841Z,2.70
2022-08-26T20:21:29.190Z,2.78
2022-08-26T20:24:06.086Z,2.58
2022-08-26T20:26:34.850Z,2.65
2022-08-26T20:29:01.346Z,2.20
2022-08-26T20:31:28.321Z,2.20
2022-08-26T20:33:55.253Z,2.67
2022-08-26T20:36:24.545Z,2.72
2022-08-26T20:38:51.089Z,2.90
2022-08-26T20:41:18.226Z,2.83
2022-08-26T20:43:46.235Z,2.70
2022-08-26T20:46:18.761Z,2.78
2022-08-26T20:48:48.556Z,2.50
2022-08-26T20:51:16.529Z,2.28
2022-08-26T20:53:44.162Z,2.63
2022-08-26T20:56:12.645Z,2.47
2022-08-26T20:58:39.810Z,2.92
2022-08-26T21:01:08.255Z,2.65
2022-08-26T21:03:36.061Z,2.92
2022-08-26T21:06:03.478Z,3.00
2022-08-26T21:08:30.056Z,2.92
2022-08-26T21:10:59.587Z,3.22
2022-08-26T21:13:26.017Z,3.05
2022-08-26T21:15:56.309Z,4.70
2022-08-26T21:18:22.854Z,5.32
2022-08-26T21:20:49.260Z,9.98
2022-08-26T21:23:15.838Z,9.75
2022-08-26T21:25:42.344Z,11.18
2022-08-26T21:28:08.937Z,10.77
2022-08-26T21:30:40.129Z,9.18
2022-08-26T21:33:07.405Z,8.07
2022-08-26T21:35:34.082Z,10.32
2022-08-26T21:38:00.750Z,10.07
2022-08-26T21:40:27.776Z,10.60
2022-08-26T21:42:54.415Z,9.07
2022-08-26T21:45:20.825Z,8.05
2022-08-26T21:47:47.378Z,5.35
2022-08-26T21:50:13.989Z,4.68
2022-08-26T21:52:40.478Z,4.28
2022-08-26T21:55:08.944Z,3.30
2022-08-26T21:57:36.433Z,4.07
2022-08-26T22:00:05.307Z,3.50
2022-08-26T22:02:32.693Z,3.20
2022-08-26T22:04:59.233Z,3.83
2022-08-26T22:07:25.661Z,2.75
2022-08-26T22:09:52.221Z,3.28
2022-08-26T22:12:18.965Z,3.03
2022-08-26T22:14:45.684Z,2.90
2022-08-26T22:17:12.433Z,3.10
2022-08-26T22:19:45.816Z,3.45
2022-08-26T22:22:13.102Z,2.80
2022-08-26T22:24:39.915Z,3.08
2022-08-26T22:27:06.375Z,3.85
2022-08-26T22:29:33.319Z,3.22
2022-08-26T22:32:00.898Z,3.07
2022-08-26T22:34:28.211Z,3.00
2022-08-26T22:36:54.738Z,2.75
2022-08-26T22:39:24.329Z,3.05
2022-08-26T22:41:53.528Z,3.60
2022-08-26T22:44:22.048Z,4.00
2022-08-26T22:46:50.289Z,4.28
2022-08-26T22:49:17.486Z,5.90
2022-08-26T22:51:45.486Z,5.33
2022-08-26T22:54:12.672Z,5.35
2022-08-26T22:56:40.004Z,5.75
2022-08-26T22:59:07.963Z,5.30
2022-08-26T23:01:37.705Z,5.47
2022-08-26T23:04:06.219Z,5.35
2022-08-26T23:06:35.881Z,4.97
2022-08-26T23:09:02.386Z,5.60
2022-08-26T23:11:28.767Z,4.53
2022-08-26T23:13:55.362Z,5.20
2022-08-26T23:16:21.926Z,5.53
2022-08-26T23:18:48.394Z,6.57
2022-08-26T23:21:15.263Z,7.17
2022-08-26T23:23:41.692Z,8.13
2022-08-26T23:26:08.235Z,7.23
2022-08-26T23:28:36.796Z,8.13
2022-08-26T23:31:03.398Z,6.67
2022-08-26T23:33:50.005Z,6.90
2022-08-26T23:36:18.013Z,6.47
2022-08-26T23:38:52.431Z,6.50
2022-08-26T23:41:21.666Z,6.60
2022-08-26T23:43:48.098Z,5.67
2022-08-26T23:46:15.164Z,4.90
2022-08-26T23:48:41.611Z,4.30
2022-08-26T23:51:26.409Z,4.57
2022-08-26T23:53:53.133Z,4.63
2022-08-26T23:56:19.820Z,3.80
2022-08-26T23:58:47.081Z,5.03
